sensor_id;sensor_type;location;lat;lon;timestamp;P1;durP1;ratioP1;P2;durP2;ratioP2
67191;SDS011;54120;53.504;49.426;2022-08-04T00:00:15;17.88;;;9.13;;
67191;SDS011;54120;53.504;49.426;2022-08-04T00:10:57;11.07;;;8.60;;
67191;SDS011;54120;53.504;49.426;2022-08-04T00:13:27;30.98;;;24.58;;
67191;SDS011;54120;53.504;49.426;2022-08-04T00:15:56;12.23;;;9.82;;
67191;SDS011;54120;53.504;49.426;2022-08-04T00:18:28;28.52;;;22.92;;
67191;SDS011;54120;53.504;49.426;2022-08-04T00:21:03;31.80;;;25.80;;
67191;SDS011;54120;53.504;49.426;2022-08-04T00:23:33;11.18;;;9.20;;
67191;SDS011;54120;53.504;49.426;2022-08-04T00:26:01;10.60;;;8.55;;
67191;SDS011;54120;53.504;49.426;2022-08-04T00:28:28;18.52;;;8.68;;
67191;SDS011;54120;53.504;49.426;2022-08-04T00:30:54;13.18;;;8.52;;
67191;SDS011;54120;53.504;49.426;2022-08-04T00:33:21;15.35;;;8.63;;
67191;SDS011;54120;53.504;49.426;2022-08-04T00:35:48;13.30;;;8.98;;
67191;SDS011;54120;53.504;49.426;2022-08-04T00:38:15;10.18;;;7.72;;
67191;SDS011;54120;53.504;49.426;2022-08-04T00:44:08;14.57;;;9.38;;
67191;SDS011;54120;53.504;49.426;2022-08-04T00:55:35;14.35;;;9.80;;
67191;SDS011;54120;53.504;49.426;2022-08-04T00:58:21;14.38;;;10.15;;
67191;SDS011;54120;53.504;49.426;2022-08-04T01:01:07;14.50;;;9.40;;
67191;SDS011;54120;53.504;49.426;2022-08-04T01:04:02;16.77;;;10.48;;
67191;SDS011;54120;53.504;49.426;2022-08-04T01:06:42;10.70;;;9.60;;
67191;SDS011;54120;53.504;49.426;2022-08-04T01:09:22;15.68;;;9.60;;
67191;SDS011;54120;53.504;49.426;2022-08-04T01:17:52;14.30;;;9.30;;
67191;SDS011;54120;53.504;49.426;2022-08-04T01:20:32;12.13;;;9.32;;
67191;SDS011;54120;53.504;49.426;2022-08-04T01:29:14;14.48;;;9.43;;
67191;SDS011;54120;53.504;49.426;2022-08-04T01:31:45;17.40;;;9.27;;
67191;SDS011;54120;53.504;49.426;2022-08-04T01:34:19;18.52;;;8.98;;
67191;SDS011;54120;53.504;49.426;2022-08-04T01:36:53;14.43;;;9.15;;
67191;SDS011;54120;53.504;49.426;2022-08-04T01:39:36;17.05;;;8.50;;
67191;SDS011;54120;53.504;49.426;2022-08-04T01:42:09;15.68;;;8.90;;
67191;SDS011;54120;53.504;49.426;2022-08-04T01:44:37;16.05;;;9.18;;
67191;SDS011;54120;53.504;49.426;2022-08-04T01:47:06;12.18;;;9.30;;
67191;SDS011;54120;53.504;49.426;2022-08-04T01:49:33;14.55;;;9.27;;
67191;SDS011;54120;53.504;49.426;2022-08-04T01:52:01;13.85;;;8.57;;
67191;SDS011;54120;53.504;49.426;2022-08-04T01:54:28;24.73;;;8.68;;
67191;SDS011;54120;53.504;49.426;2022-08-04T01:56:56;11.57;;;8.75;;
67191;SDS011;54120;53.504;49.426;2022-08-04T01:59:25;14.02;;;8.13;;
67191;SDS011;54120;53.504;49.426;2022-08-04T02:01:55;17.15;;;8.82;;
67191;SDS011;54120;53.504;49.426;2022-08-04T02:04:21;33.78;;;23.50;;
67191;SDS011;54120;53.504;49.426;2022-08-04T02:09:42;25.45;;;19.02;;
67191;SDS011;54120;53.504;49.426;2022-08-04T02:18:04;8.27;;;7.35;;
67191;SDS011;54120;53.504;49.426;2022-08-04T02:20:38;12.43;;;9.00;;
67191;SDS011;54120;53.504;49.426;2022-08-04T02:23:09;14.63;;;7.30;;
67191;SDS011;54120;53.504;49.426;2022-08-04T02:25:44;13.63;;;8.00;;
67191;SDS011;54120;53.504;49.426;2022-08-04T02:28:47;37.63;;;25.70;;
67191;SDS011;54120;53.504;49.426;2022-08-04T02:31:26;44.17;;;33.33;;
67191;SDS011;54120;53.504;49.426;2022-08-04T02:36:39;12.52;;;7.90;;
67191;SDS011;54120;53.504;49.426;2022-08-04T02:39:07;13.10;;;6.95;;
67191;SDS011;54120;53.504;49.426;2022-08-04T02:41:36;9.93;;;6.90;;
67191;SDS011;54120;53.504;49.426;2022-08-04T02:44:06;8.65;;;6.57;;
67191;SDS011;54120;53.504;49.426;2022-08-04T02:46:35;11.23;;;6.95;;
67191;SDS011;54120;53.504;49.426;2022-08-04T02:49:03;24.67;;;7.18;;
67191;SDS011;54120;53.504;49.426;2022-08-04T02:51:35;7.72;;;6.93;;
67191;SDS011;54120;53.504;49.426;2022-08-04T02:54:05;14.80;;;6.65;;
67191;SDS011;54120;53.504;49.426;2022-08-04T02:56:32;11.93;;;6.63;;
67191;SDS011;54120;53.504;49.426;2022-08-04T02:59:06;11.73;;;6.45;;
67191;SDS011;54120;53.504;49.426;2022-08-04T03:01:34;13.75;;;6.15;;
67191;SDS011;54120;53.504;49.426;2022-08-04T03:04:11;10.90;;;6.30;;
67191;SDS011;54120;53.504;49.426;2022-08-04T03:22:47;13.20;;;6.63;;
67191;SDS011;54120;53.504;49.426;2022-08-04T03:26:28;10.18;;;6.03;;
67191;SDS011;54120;53.504;49.426;2022-08-04T03:31:41;12.15;;;5.90;;
67191;SDS011;54120;53.504;49.426;2022-08-04T04:02:55;10.43;;;5.47;;
67191;SDS011;54120;53.504;49.426;2022-08-04T04:08:31;13.47;;;5.23;;
67191;SDS011;54120;53.504;49.426;2022-08-04T04:19:47;8.95;;;4.70;;
67191;SDS011;54120;53.504;49.426;2022-08-04T04:22:44;8.93;;;5.07;;
67191;SDS011;54120;53.504;49.426;2022-08-04T04:25:33;13.57;;;5.40;;
67191;SDS011;54120;53.504;49.426;2022-08-04T04:28:13;17.75;;;5.45;;
67191;SDS011;54120;53.504;49.426;2022-08-04T04:31:18;6.70;;;5.20;;
67191;SDS011;54120;53.504;49.426;2022-08-04T04:33:52;14.32;;;5.10;;
67191;SDS011;54120;53.504;49.426;2022-08-04T04:45:07;10.88;;;6.32;;
67191;SDS011;54120;53.504;49.426;2022-08-04T04:53:00;18.08;;;4.85;;
67191;SDS011;54120;53.504;49.426;2022-08-04T04:55:32;10.82;;;5.35;;
67191;SDS011;54120;53.504;49.426;2022-08-04T04:58:05;17.55;;;5.57;;
67191;SDS011;54120;53.504;49.426;2022-08-04T05:05:59;14.55;;;7.50;;
67191;SDS011;54120;53.504;49.426;2022-08-04T05:08:50;21.80;;;7.45;;
67191;SDS011;54120;53.504;49.426;2022-08-04T05:11:32;21.47;;;7.37;;
67191;SDS011;54120;53.504;49.426;2022-08-04T05:14:40;22.88;;;8.20;;
67191;SDS011;54120;53.504;49.426;2022-08-04T05:22:36;52.45;;;10.05;;
67191;SDS011;54120;53.504;49.426;2022-08-04T05:27:45;21.92;;;8.10;;
67191;SDS011;54120;53.504;49.426;2022-08-04T05:30:16;17.80;;;7.00;;
67191;SDS011;54120;53.504;49.426;2022-08-04T05:32:54;17.95;;;6.68;;
67191;SDS011;54120;53.504;49.426;2022-08-04T05:35:32;21.87;;;8.50;;
67191;SDS011;54120;53.504;49.426;2022-08-04T05:38:01;25.42;;;7.72;;
67191;SDS011;54120;53.504;49.426;2022-08-04T05:40:29;25.98;;;8.85;;
67191;SDS011;54120;53.504;49.426;2022-08-04T05:42:56;37.08;;;9.35;;
67191;SDS011;54120;53.504;49.426;2022-08-04T05:45:23;33.25;;;9.40;;
67191;SDS011;54120;53.504;49.426;2022-08-04T05:47:51;24.30;;;9.23;;
67191;SDS011;54120;53.504;49.426;2022-08-04T05:50:18;33.60;;;9.05;;
67191;SDS011;54120;53.504;49.426;2022-08-04T05:52:45;26.92;;;7.50;;
67191;SDS011;54120;53.504;49.426;2022-08-04T05:55:12;27.95;;;7.22;;
67191;SDS011;54120;53.504;49.426;2022-08-04T05:57:39;38.38;;;7.72;;
67191;SDS011;54120;53.504;49.426;2022-08-04T06:00:07;32.30;;;7.65;;
67191;SDS011;54120;53.504;49.426;2022-08-04T06:02:34;25.65;;;6.55;;
67191;SDS011;54120;53.504;49.426;2022-08-04T06:05:04;26.25;;;7.78;;
67191;SDS011;54120;53.504;49.426;2022-08-04T06:07:32;27.52;;;8.48;;
67191;SDS011;54120;53.504;49.426;2022-08-04T06:09:59;23.35;;;7.28;;
67191;SDS011;54120;53.504;49.426;2022-08-04T06:12:28;20.77;;;6.50;;
67191;SDS011;54120;53.504;49.426;2022-08-04T06:14:59;15.13;;;5.82;;
67191;SDS011;54120;53.504;49.426;2022-08-04T06:17:30;19.15;;;5.57;;
67191;SDS011;54120;53.504;49.426;2022-08-04T06:19:59;9.88;;;5.15;;
67191;SDS011;54120;53.504;49.426;2022-08-04T06:22:27;16.02;;;4.93;;
67191;SDS011;54120;53.504;49.426;2022-08-04T06:24:54;12.43;;;4.38;;
67191;SDS011;54120;53.504;49.426;2022-08-04T06:27:23;9.23;;;3.40;;
67191;SDS011;54120;53.504;49.426;2022-08-04T06:29:50;8.77;;;3.10;;
67191;SDS011;54120;53.504;49.426;2022-08-04T06:32:18;10.18;;;3.30;;
67191;SDS011;54120;53.504;49.426;2022-08-04T06:34:56;10.95;;;3.75;;
67191;SDS011;54120;53.504;49.426;2022-08-04T06:37:26;11.68;;;3.50;;
67191;SDS011;54120;53.504;49.426;2022-08-04T06:39:53;7.10;;;2.38;;
67191;SDS011;54120;53.504;49.426;2022-08-04T06:42:21;7.78;;;2.65;;
67191;SDS011;54120;53.504;49.426;2022-08-04T06:44:56;5.57;;;2.60;;
67191;SDS011;54120;53.504;49.426;2022-08-04T06:47:24;4.50;;;2.78;;
67191;SDS011;54120;53.504;49.426;2022-08-04T06:49:51;9.57;;;3.05;;
67191;SDS011;54120;53.504;49.426;2022-08-04T06:52:20;9.57;;;2.80;;
67191;SDS011;54120;53.504;49.426;2022-08-04T06:54:47;10.80;;;3.40;;
67191;SDS011;54120;53.504;49.426;2022-08-04T06:57:17;6.78;;;3.10;;
67191;SDS011;54120;53.504;49.426;2022-08-04T06:59:48;6.05;;;2.75;;
67191;SDS011;54120;53.504;49.426;2022-08-04T07:02:19;6.13;;;2.90;;
67191;SDS011;54120;53.504;49.426;2022-08-04T07:04:50;10.57;;;3.13;;
67191;SDS011;54120;53.504;49.426;2022-08-04T07:07:16;10.25;;;3.60;;
67191;SDS011;54120;53.504;49.426;2022-08-04T07:09:43;7.00;;;3.80;;
67191;SDS011;54120;53.504;49.426;2022-08-04T07:12:09;3.80;;;2.70;;
67191;SDS011;54120;53.504;49.426;2022-08-04T07:14:49;8.95;;;3.92;;
67191;SDS011;54120;53.504;49.426;2022-08-04T07:17:16;2.50;;;2.20;;
67191;SDS011;54120;53.504;49.426;2022-08-04T07:19:45;5.30;;;2.40;;
67191;SDS011;54120;53.504;49.426;2022-08-04T07:22:11;4.20;;;2.35;;
67191;SDS011;54120;53.504;49.426;2022-08-04T07:24:38;15.23;;;2.60;;
67191;SDS011;54120;53.504;49.426;2022-08-04T07:27:07;7.25;;;2.90;;
67191;SDS011;54120;53.504;49.426;2022-08-04T07:29:33;4.80;;;2.08;;
67191;SDS011;54120;53.504;49.426;2022-08-04T07:32:01;6.55;;;1.98;;
67191;SDS011;54120;53.504;49.426;2022-08-04T07:34:28;10.93;;;2.85;;
67191;SDS011;54120;53.504;49.426;2022-08-04T07:36:56;12.70;;;2.70;;
67191;SDS011;54120;53.504;49.426;2022-08-04T07:39:27;6.10;;;2.10;;
67191;SDS011;54120;53.504;49.426;2022-08-04T07:41:56;3.75;;;1.83;;
67191;SDS011;54120;53.504;49.426;2022-08-04T07:44:24;8.73;;;2.38;;
67191;SDS011;54120;53.504;49.426;2022-08-04T07:46:51;6.00;;;1.98;;
67191;SDS011;54120;53.504;49.426;2022-08-04T07:49:17;8.75;;;2.08;;
67191;SDS011;54120;53.504;49.426;2022-08-04T07:51:44;8.23;;;2.38;;
67191;SDS011;54120;53.504;49.426;2022-08-04T07:54:11;2.63;;;1.85;;
67191;SDS011;54120;53.504;49.426;2022-08-04T07:56:39;4.93;;;1.73;;
67191;SDS011;54120;53.504;49.426;2022-08-04T07:59:06;7.07;;;1.95;;
67191;SDS011;54120;53.504;49.426;2022-08-04T08:01:34;7.53;;;2.00;;
67191;SDS011;54120;53.504;49.426;2022-08-04T08:04:02;2.60;;;1.90;;
67191;SDS011;54120;53.504;49.426;2022-08-04T08:06:31;2.17;;;1.73;;
67191;SDS011;54120;53.504;49.426;2022-08-04T08:09:06;2.10;;;1.90;;
67191;SDS011;54120;53.504;49.426;2022-08-04T08:11:33;6.30;;;2.22;;
67191;SDS011;54120;53.504;49.426;2022-08-04T08:14:00;1.80;;;1.70;;
67191;SDS011;54120;53.504;49.426;2022-08-04T08:16:27;5.50;;;1.83;;
67191;SDS011;54120;53.504;49.426;2022-08-04T08:18:54;9.50;;;2.10;;
67191;SDS011;54120;53.504;49.426;2022-08-04T08:21:20;5.05;;;2.00;;
67191;SDS011;54120;53.504;49.426;2022-08-04T08:23:47;5.97;;;2.63;;
67191;SDS011;54120;53.504;49.426;2022-08-04T08:26:15;16.00;;;2.72;;
67191;SDS011;54120;53.504;49.426;2022-08-04T08:28:42;5.18;;;2.00;;
67191;SDS011;54120;53.504;49.426;2022-08-04T08:31:08;4.80;;;2.00;;
67191;SDS011;54120;53.504;49.426;2022-08-04T08:33:34;2.67;;;2.30;;
67191;SDS011;54120;53.504;49.426;2022-08-04T08:36:16;2.58;;;2.20;;
67191;SDS011;54120;53.504;49.426;2022-08-04T08:39:11;4.05;;;2.17;;
67191;SDS011;54120;53.504;49.426;2022-08-04T08:47:26;40.72;;;4.15;;
67191;SDS011;54120;53.504;49.426;2022-08-04T08:50:27;14.20;;;2.43;;
67191;SDS011;54120;53.504;49.426;2022-08-04T08:53:15;13.85;;;2.92;;
67191;SDS011;54120;53.504;49.426;2022-08-04T08:58:46;12.32;;;2.63;;
67191;SDS011;54120;53.504;49.426;2022-08-04T09:04:31;2.15;;;1.95;;
67191;SDS011;54120;53.504;49.426;2022-08-04T09:09:52;16.15;;;2.90;;
67191;SDS011;54120;53.504;49.426;2022-08-04T09:12:31;3.65;;;2.03;;
67191;SDS011;54120;53.504;49.426;2022-08-04T09:15:04;5.72;;;2.00;;
67191;SDS011;54120;53.504;49.426;2022-08-04T09:18:02;3.58;;;1.95;;
67191;SDS011;54120;53.504;49.426;2022-08-04T09:20:44;4.30;;;2.25;;
67191;SDS011;54120;53.504;49.426;2022-08-04T09:25:48;3.13;;;2.47;;
67191;SDS011;54120;53.504;49.426;2022-08-04T09:28:23;9.93;;;2.45;;
67191;SDS011;54120;53.504;49.426;2022-08-04T09:31:01;2.88;;;2.00;;
67191;SDS011;54120;53.504;49.426;2022-08-04T09:36:26;6.45;;;2.90;;
67191;SDS011;54120;53.504;49.426;2022-08-04T09:39:14;2.78;;;2.00;;
67191;SDS011;54120;53.504;49.426;2022-08-04T09:42:11;3.75;;;2.10;;
67191;SDS011;54120;53.504;49.426;2022-08-04T09:45:09;4.45;;;2.10;;
67191;SDS011;54120;53.504;49.426;2022-08-04T09:50:40;6.65;;;2.67;;
67191;SDS011;54120;53.504;49.426;2022-08-04T10:01:23;6.47;;;3.20;;
67191;SDS011;54120;53.504;49.426;2022-08-04T10:03:55;5.35;;;2.63;;
67191;SDS011;54120;53.504;49.426;2022-08-04T10:20:02;2.67;;;2.47;;
67191;SDS011;54120;53.504;49.426;2022-08-04T10:22:40;5.10;;;2.50;;
67191;SDS011;54120;53.504;49.426;2022-08-04T10:25:41;2.75;;;2.45;;
67191;SDS011;54120;53.504;49.426;2022-08-04T10:28:22;8.30;;;3.10;;
67191;SDS011;54120;53.504;49.426;2022-08-04T10:30:56;3.03;;;2.75;;
67191;SDS011;54120;53.504;49.426;2022-08-04T10:33:30;6.65;;;2.78;;
67191;SDS011;54120;53.504;49.426;2022-08-04T10:36:03;4.83;;;2.53;;
67191;SDS011;54120;53.504;49.426;2022-08-04T10:44:14;7.78;;;2.92;;
67191;SDS011;54120;53.504;49.426;2022-08-04T10:47:00;4.68;;;2.90;;
67191;SDS011;54120;53.504;49.426;2022-08-04T10:54:48;5.90;;;2.40;;
67191;SDS011;54120;53.504;49.426;2022-08-04T11:00:07;5.60;;;2.03;;
67191;SDS011;54120;53.504;49.426;2022-08-04T11:02:45;2.20;;;1.95;;
67191;SDS011;54120;53.504;49.426;2022-08-04T11:07:56;8.95;;;2.30;;
67191;SDS011;54120;53.504;49.426;2022-08-04T11:10:32;2.75;;;1.80;;
67191;SDS011;54120;53.504;49.426;2022-08-04T11:13:05;4.13;;;2.20;;
67191;SDS011;54120;53.504;49.426;2022-08-04T11:15:37;18.42;;;2.88;;
67191;SDS011;54120;53.504;49.426;2022-08-04T11:18:12;7.55;;;2.50;;
67191;SDS011;54120;53.504;49.426;2022-08-04T11:20:58;26.15;;;3.42;;
67191;SDS011;54120;53.504;49.426;2022-08-04T11:23:32;13.05;;;2.65;;
67191;SDS011;54120;53.504;49.426;2022-08-04T11:26:03;3.45;;;1.73;;
67191;SDS011;54120;53.504;49.426;2022-08-04T11:28:40;5.78;;;2.08;;
67191;SDS011;54120;53.504;49.426;2022-08-04T11:31:22;5.90;;;2.20;;
67191;SDS011;54120;53.504;49.426;2022-08-04T11:34:25;5.53;;;2.08;;
67191;SDS011;54120;53.504;49.426;2022-08-04T11:39:59;3.55;;;2.28;;
67191;SDS011;54120;53.504;49.426;2022-08-04T11:42:42;8.30;;;2.10;;
67191;SDS011;54120;53.504;49.426;2022-08-04T11:45:27;3.95;;;2.17;;
67191;SDS011;54120;53.504;49.426;2022-08-04T11:48:32;5.40;;;2.80;;
67191;SDS011;54120;53.504;49.426;2022-08-04T11:51:08;2.53;;;2.25;;
67191;SDS011;54120;53.504;49.426;2022-08-04T11:53:36;6.28;;;2.17;;
67191;SDS011;54120;53.504;49.426;2022-08-04T11:56:04;2.67;;;2.38;;
67191;SDS011;54120;53.504;49.426;2022-08-04T11:58:33;6.72;;;2.08;;
67191;SDS011;54120;53.504;49.426;2022-08-04T12:06:44;8.88;;;2.70;;
67191;SDS011;54120;53.504;49.426;2022-08-04T12:17:37;8.15;;;2.50;;
67191;SDS011;54120;53.504;49.426;2022-08-04T12:20:09;9.48;;;2.28;;
67191;SDS011;54120;53.504;49.426;2022-08-04T12:22:48;2.60;;;2.22;;
67191;SDS011;54120;53.504;49.426;2022-08-04T12:25:39;5.95;;;2.15;;
67191;SDS011;54120;53.504;49.426;2022-08-04T12:28:12;4.20;;;2.10;;
67191;SDS011;54120;53.504;49.426;2022-08-04T12:30:51;2.80;;;2.45;;
67191;SDS011;54120;53.504;49.426;2022-08-04T12:33:23;4.90;;;2.90;;
67191;SDS011;54120;53.504;49.426;2022-08-04T12:38:58;10.73;;;3.95;;
67191;SDS011;54120;53.504;49.426;2022-08-04T12:44:46;11.52;;;3.38;;
67191;SDS011;54120;53.504;49.426;2022-08-04T12:47:22;4.88;;;3.03;;
67191;SDS011;54120;53.504;49.426;2022-08-04T12:49:50;5.18;;;3.20;;
67191;SDS011;54120;53.504;49.426;2022-08-04T12:52:17;7.55;;;3.42;;
67191;SDS011;54120;53.504;49.426;2022-08-04T12:54:50;5.13;;;3.55;;
67191;SDS011;54120;53.504;49.426;2022-08-04T12:57:18;9.38;;;4.40;;
67191;SDS011;54120;53.504;49.426;2022-08-04T12:59:48;7.25;;;4.07;;
67191;SDS011;54120;53.504;49.426;2022-08-04T13:02:17;7.53;;;4.15;;
67191;SDS011;54120;53.504;49.426;2022-08-04T13:04:50;11.85;;;4.50;;
67191;SDS011;54120;53.504;49.426;2022-08-04T13:07:23;11.93;;;5.30;;
67191;SDS011;54120;53.504;49.426;2022-08-04T13:09:51;8.00;;;5.13;;
67191;SDS011;54120;53.504;49.426;2022-08-04T13:12:22;6.18;;;4.53;;
67191;SDS011;54120;53.504;49.426;2022-08-04T13:14:51;7.68;;;4.75;;
67191;SDS011;54120;53.504;49.426;2022-08-04T13:17:24;8.25;;;4.80;;
67191;SDS011;54120;53.504;49.426;2022-08-04T13:19:50;9.82;;;5.60;;
67191;SDS011;54120;53.504;49.426;2022-08-04T13:22:23;11.40;;;5.68;;
67191;SDS011;54120;53.504;49.426;2022-08-04T13:24:51;8.02;;;4.55;;
67191;SDS011;54120;53.504;49.426;2022-08-04T13:27:18;5.30;;;4.25;;
67191;SDS011;54120;53.504;49.426;2022-08-04T13:29:46;9.95;;;5.30;;
67191;SDS011;54120;53.504;49.426;2022-08-04T13:32:17;5.65;;;4.38;;
67191;SDS011;54120;53.504;49.426;2022-08-04T13:34:47;6.35;;;5.07;;
67191;SDS011;54120;53.504;49.426;2022-08-04T13:37:16;4.93;;;4.28;;
67191;SDS011;54120;53.504;49.426;2022-08-04T13:39:45;8.32;;;6.05;;
67191;SDS011;54120;53.504;49.426;2022-08-04T13:42:13;9.50;;;4.70;;
67191;SDS011;54120;53.504;49.426;2022-08-04T13:44:42;7.93;;;4.40;;
67191;SDS011;54120;53.504;49.426;2022-08-04T13:47:18;5.63;;;4.13;;
67191;SDS011;54120;53.504;49.426;2022-08-04T13:50:07;4.13;;;3.28;;
67191;SDS011;54120;53.504;49.426;2022-08-04T13:52:36;4.75;;;3.67;;
67191;SDS011;54120;53.504;49.426;2022-08-04T13:55:03;8.00;;;4.13;;
67191;SDS011;54120;53.504;49.426;2022-08-04T13:57:32;7.90;;;4.40;;
67191;SDS011;54120;53.504;49.426;2022-08-04T14:00:07;9.18;;;4.80;;
67191;SDS011;54120;53.504;49.426;2022-08-04T14:05:12;7.18;;;4.53;;
67191;SDS011;54120;53.504;49.426;2022-08-04T14:07:45;7.72;;;4.10;;
67191;SDS011;54120;53.504;49.426;2022-08-04T14:10:13;6.03;;;4.25;;
67191;SDS011;54120;53.504;49.426;2022-08-04T14:12:47;6.78;;;4.90;;
67191;SDS011;54120;53.504;49.426;2022-08-04T14:15:30;7.32;;;4.40;;
67191;SDS011;54120;53.504;49.426;2022-08-04T14:18:21;5.75;;;5.05;;
67191;SDS011;54120;53.504;49.426;2022-08-04T14:21:12;9.38;;;4.82;;
67191;SDS011;54120;53.504;49.426;2022-08-04T14:23:44;8.52;;;4.65;;
67191;SDS011;54120;53.504;49.426;2022-08-04T14:26:25;7.53;;;5.38;;
67191;SDS011;54120;53.504;49.426;2022-08-04T14:28:55;8.27;;;4.60;;
67191;SDS011;54120;53.504;49.426;2022-08-04T14:31:31;11.70;;;4.90;;
67191;SDS011;54120;53.504;49.426;2022-08-04T14:33:57;9.23;;;5.13;;
67191;SDS011;54120;53.504;49.426;2022-08-04T14:36:23;7.97;;;5.43;;
67191;SDS011;54120;53.504;49.426;2022-08-04T14:38:56;8.88;;;4.97;;
67191;SDS011;54120;53.504;49.426;2022-08-04T14:41:24;11.20;;;5.25;;
67191;SDS011;54120;53.504;49.426;2022-08-04T14:43:56;9.18;;;4.95;;
67191;SDS011;54120;53.504;49.426;2022-08-04T14:46:24;13.02;;;5.25;;
67191;SDS011;54120;53.504;49.426;2022-08-04T14:49:25;9.52;;;5.80;;
67191;SDS011;54120;53.504;49.426;2022-08-04T14:51:50;8.15;;;4.88;;
67191;SDS011;54120;53.504;49.426;2022-08-04T14:54:29;17.35;;;14.13;;
67191;SDS011;54120;53.504;49.426;2022-08-04T14:57:02;19.35;;;13.10;;
67191;SDS011;54120;53.504;49.426;2022-08-04T14:59:52;10.35;;;5.13;;
67191;SDS011;54120;53.504;49.426;2022-08-04T15:02:18;7.30;;;5.55;;
67191;SDS011;54120;53.504;49.426;2022-08-04T15:04:45;14.05;;;5.43;;
67191;SDS011;54120;53.504;49.426;2022-08-04T15:07:12;6.15;;;4.97;;
67191;SDS011;54120;53.504;49.426;2022-08-04T15:09:38;7.60;;;5.10;;
67191;SDS011;54120;53.504;49.426;2022-08-04T15:12:06;9.35;;;6.03;;
67191;SDS011;54120;53.504;49.426;2022-08-04T15:14:34;10.07;;;5.20;;
67191;SDS011;54120;53.504;49.426;2022-08-04T15:17:01;6.60;;;5.40;;
67191;SDS011;54120;53.504;49.426;2022-08-04T15:19:27;8.75;;;5.35;;
67191;SDS011;54120;53.504;49.426;2022-08-04T15:21:55;17.70;;;5.43;;
67191;SDS011;54120;53.504;49.426;2022-08-04T15:24:21;8.60;;;5.13;;
67191;SDS011;54120;53.504;49.426;2022-08-04T15:26:48;15.75;;;6.45;;
67191;SDS011;54120;53.504;49.426;2022-08-04T15:29:19;11.57;;;5.03;;
67191;SDS011;54120;53.504;49.426;2022-08-04T15:31:53;14.82;;;5.30;;
67191;SDS011;54120;53.504;49.426;2022-08-04T15:34:21;12.88;;;6.88;;
67191;SDS011;54120;53.504;49.426;2022-08-04T15:39:33;10.68;;;9.38;;
67191;SDS011;54120;53.504;49.426;2022-08-04T15:47:21;9.95;;;4.90;;
67191;SDS011;54120;53.504;49.426;2022-08-04T15:50:07;12.82;;;5.60;;
67191;SDS011;54120;53.504;49.426;2022-08-04T15:57:56;12.88;;;5.13;;
67191;SDS011;54120;53.504;49.426;2022-08-04T16:00:26;8.02;;;6.00;;
67191;SDS011;54120;53.504;49.426;2022-08-04T16:02:53;8.45;;;5.47;;
67191;SDS011;54120;53.504;49.426;2022-08-04T16:07:53;6.72;;;6.03;;
67191;SDS011;54120;53.504;49.426;2022-08-04T16:10:42;8.20;;;5.72;;
67191;SDS011;54120;53.504;49.426;2022-08-04T16:13:11;7.72;;;5.53;;
67191;SDS011;54120;53.504;49.426;2022-08-04T16:15:53;11.00;;;5.97;;
67191;SDS011;54120;53.504;49.426;2022-08-04T16:20:57;9.52;;;5.90;;
67191;SDS011;54120;53.504;49.426;2022-08-04T16:23:34;9.32;;;5.85;;
67191;SDS011;54120;53.504;49.426;2022-08-04T16:27:29;14.15;;;6.20;;
67191;SDS011;54120;53.504;49.426;2022-08-04T16:34:38;9.68;;;6.63;;
67191;SDS011;54120;53.504;49.426;2022-08-04T16:37:05;11.68;;;6.05;;
67191;SDS011;54120;53.504;49.426;2022-08-04T16:39:32;11.50;;;6.28;;
67191;SDS011;54120;53.504;49.426;2022-08-04T16:41:59;15.65;;;6.47;;
67191;SDS011;54120;53.504;49.426;2022-08-04T16:44:45;15.95;;;6.32;;
67191;SDS011;54120;53.504;49.426;2022-08-04T16:50:16;9.18;;;6.18;;
67191;SDS011;54120;53.504;49.426;2022-08-04T16:52:44;18.70;;;6.18;;
67191;SDS011;54120;53.504;49.426;2022-08-04T16:55:18;14.13;;;6.78;;
67191;SDS011;54120;53.504;49.426;2022-08-04T16:57:49;13.73;;;6.40;;
67191;SDS011;54120;53.504;49.426;2022-08-04T17:00:28;12.02;;;6.55;;
67191;SDS011;54120;53.504;49.426;2022-08-04T17:03:06;14.82;;;6.63;;
67191;SDS011;54120;53.504;49.426;2022-08-04T17:05:34;12.65;;;6.25;;
67191;SDS011;54120;53.504;49.426;2022-08-04T17:08:02;12.50;;;7.38;;
67191;SDS011;54120;53.504;49.426;2022-08-04T17:10:30;10.70;;;6.35;;
67191;SDS011;54120;53.504;49.426;2022-08-04T17:15:56;13.40;;;6.38;;
67191;SDS011;54120;53.504;49.426;2022-08-04T17:18:29;16.10;;;6.70;;
67191;SDS011;54120;53.504;49.426;2022-08-04T17:23:29;14.63;;;6.35;;
67191;SDS011;54120;53.504;49.426;2022-08-04T17:26:00;18.83;;;5.75;;
67191;SDS011;54120;53.504;49.426;2022-08-04T17:28:37;13.98;;;5.43;;
67191;SDS011;54120;53.504;49.426;2022-08-04T17:31:05;15.82;;;5.32;;
67191;SDS011;54120;53.504;49.426;2022-08-04T17:33:34;15.00;;;7.30;;
67191;SDS011;54120;53.504;49.426;2022-08-04T17:36:02;15.85;;;6.90;;
67191;SDS011;54120;53.504;49.426;2022-08-04T17:38:34;12.43;;;6.50;;
67191;SDS011;54120;53.504;49.426;2022-08-04T17:41:04;12.82;;;6.57;;
67191;SDS011;54120;53.504;49.426;2022-08-04T17:43:40;20.10;;;6.63;;
67191;SDS011;54120;53.504;49.426;2022-08-04T17:46:18;19.83;;;6.78;;
67191;SDS011;54120;53.504;49.426;2022-08-04T17:48:53;15.73;;;6.88;;
67191;SDS011;54120;53.504;49.426;2022-08-04T17:54:03;17.15;;;7.07;;
67191;SDS011;54120;53.504;49.426;2022-08-04T17:56:31;26.17;;;7.68;;
67191;SDS011;54120;53.504;49.426;2022-08-04T17:59:13;19.88;;;6.93;;
67191;SDS011;54120;53.504;49.426;2022-08-04T18:04:24;15.10;;;6.70;;
67191;SDS011;54120;53.504;49.426;2022-08-04T18:06:56;16.10;;;6.57;;
67191;SDS011;54120;53.504;49.426;2022-08-04T18:09:30;11.38;;;6.50;;
67191;SDS011;54120;53.504;49.426;2022-08-04T18:11:58;15.60;;;6.00;;
67191;SDS011;54120;53.504;49.426;2022-08-04T18:14:37;17.40;;;5.88;;
67191;SDS011;54120;53.504;49.426;2022-08-04T18:17:05;11.90;;;6.88;;
67191;SDS011;54120;53.504;49.426;2022-08-04T18:19:31;15.00;;;6.22;;
67191;SDS011;54120;53.504;49.426;2022-08-04T18:21:58;14.70;;;6.30;;
67191;SDS011;54120;53.504;49.426;2022-08-04T18:24:24;9.80;;;6.07;;
67191;SDS011;54120;53.504;49.426;2022-08-04T18:26:51;16.00;;;6.18;;
67191;SDS011;54120;53.504;49.426;2022-08-04T18:29:17;10.35;;;6.05;;
67191;SDS011;54120;53.504;49.426;2022-08-04T18:31:44;17.90;;;7.70;;
67191;SDS011;54120;53.504;49.426;2022-08-04T18:34:10;14.50;;;6.95;;
67191;SDS011;54120;53.504;49.426;2022-08-04T18:36:36;16.92;;;6.90;;
67191;SDS011;54120;53.504;49.426;2022-08-04T18:39:04;14.02;;;6.70;;
67191;SDS011;54120;53.504;49.426;2022-08-04T18:41:31;17.52;;;8.57;;
67191;SDS011;54120;53.504;49.426;2022-08-04T18:43:59;15.80;;;6.50;;
67191;SDS011;54120;53.504;49.426;2022-08-04T18:46:25;13.70;;;6.65;;
67191;SDS011;54120;53.504;49.426;2022-08-04T18:48:51;37.50;;;12.95;;
67191;SDS011;54120;53.504;49.426;2022-08-04T18:51:18;14.68;;;7.05;;
67191;SDS011;54120;53.504;49.426;2022-08-04T18:53:44;18.25;;;8.57;;
67191;SDS011;54120;53.504;49.426;2022-08-04T18:56:13;21.50;;;7.80;;
67191;SDS011;54120;53.504;49.426;2022-08-04T18:58:40;52.45;;;12.38;;
67191;SDS011;54120;53.504;49.426;2022-08-04T19:01:07;34.67;;;10.63;;
67191;SDS011;54120;53.504;49.426;2022-08-04T19:03:34;27.85;;;12.10;;
67191;SDS011;54120;53.504;49.426;2022-08-04T19:06:01;32.55;;;11.57;;
67191;SDS011;54120;53.504;49.426;2022-08-04T19:08:30;20.05;;;11.07;;
67191;SDS011;54120;53.504;49.426;2022-08-04T19:10:57;36.15;;;12.40;;
67191;SDS011;54120;53.504;49.426;2022-08-04T19:13:25;29.67;;;11.82;;